Flight Track Log - Related Links

Times and Time Zones

All times are in EST time to prevent confusion due to time zone crossing. See the N27XP flight status page for this flight to view local times or setup timezone preferences in your user account.

Time Position Orientation Groundspeed Altitude Reporting Facility
EST Latitude Longitude Course Direction KTS MPH feet Rate Location/Type
Tue 09:36:59 PM 34.7114 -82.6869 76° East 271 312 7,100  Level Atlanta Center
Tue 09:37:59 PM 34.7289 -82.5856 78° East 285 328 9,400 2,250 Climbing Atlanta Center
Tue 09:38:59 PM 34.7506 -82.4714 77° East 316 364 11,600 2,050 Climbing Atlanta Center
Tue 09:39:59 PM 34.7719 -82.3497 78° East 346 398 13,500 1,900 Climbing Atlanta Center
Tue 09:40:59 PM 34.7931 -82.2203 79° East 370 426 15,400 1,900 Climbing Atlanta Center
Tue 09:41:00 PM 34.7532 -82.3672 76° East  Level FlightAware Approximate
Tue 09:41:59 PM 34.8181 -82.0931 77° East 382 440 17,300  Level Atlanta Center
Tue 09:42:59 PM 34.8408 -81.9508 79° East 397 457 18,800 1,350 Climbing Atlanta Center
Tue 09:43:59 PM 34.8675 -81.8008 78° East 408 470 20,000 1,000 Climbing Atlanta Center
Tue 09:44:59 PM 34.8897 -81.6508 80° East 429 494 20,800 500 Climbing Atlanta Center
Tue 09:45:59 PM 34.9136 -81.4983 79° East 443 510 21,000 100 Climbing Atlanta Center
Tue 09:46:59 PM 34.9564 -81.3500 71° East 454 522 21,000  Level Atlanta Center
Tue 09:47:59 PM 34.9992 -81.2014 71° East 459 528 21,000  Level Atlanta Center
Tue 09:48:59 PM 35.0414 -81.0556 70° East 454 522 21,000  Level Atlanta Center
Tue 09:49:59 PM 35.0778 -80.9197 72° East 460 529 21,000  Level Atlanta Center
Tue 09:50:59 PM 35.1197 -80.7708 71° East 455 524 21,000  Level Atlanta Center
Tue 09:51:59 PM 35.1636 -80.6217 70° East 455 524 21,000 -150 Level Atlanta Center
Tue 09:52:59 PM 35.2053 -80.4725 71° East 455 524 20,700 -1,099 Descending Atlanta Center
Tue 09:55:10 PM 35.2950 -80.1497 71° East 447 514 17,500 -1,571 Descending Washington Center
Tue 09:56:10 PM 35.3336 -80.0144 71° East 432 497 15,700 -1,750 Descending Washington Center
Tue 09:57:10 PM 35.3697 -79.8789 72° East 413 475 14,000 -1,450 Descending Washington Center
Tue 09:58:10 PM 35.4078 -79.7511 70° East 407 468 12,800 -1,271 Descending Washington Center
Tue 09:59:08 PM 35.4411 -79.6278 72° East 395 455 11,500 -1,215 Descending Washington Center
Tue 09:59:29 PM 35.4508 -79.5900 72° East 384 442 11,200 -429 Descending Washington Center
Tue 10:00:18 PM 35.4814 -79.4844 70° East 388 447 11,000 -120 Descending Washington Center
Tue 10:01:09 PM 35.5161 -79.3789 68° East 379 436 11,000  Level Washington Center
Tue 10:01:19 PM 35.5208 -79.3639 69° East 384 442 11,000  Level Washington Center
Tue 10:02:10 PM 35.5758 -79.2719 54° Northeast 374 430 11,000  Level Washington Center
Tue 10:02:19 PM 35.5844 -79.2622 43° Northeast 386 444 11,000  Level Washington Center
Tue 10:03:10 PM 35.6394 -79.1675 54° Northeast 380 437 11,000  Level Washington Center
Tue 10:03:19 PM 35.6439 -79.1600 54° Northeast 373 429 11,000 -203 Level Washington Center
Tue 10:04:09 PM 35.6881 -79.0803 56° Northeast 363 418 10,800 -774 Descending Washington Center
Tue 10:04:21 PM 35.6931 -79.0447 80° East 340 391 10,200 -1,700 Descending Washington Center
Tue 10:05:09 PM 35.7203 -78.9742 65° Northeast 338 389 9,100 -1,612 Descending Washington Center
Tue 10:05:28 PM 35.7275 -78.9336 78° East 318 366 8,400 -1,119 Descending Washington Center
Tue 10:06:08 PM 35.7481 -78.8731 67° East 328 377 8,000 -462 Descending Washington Center
Tue 10:06:20 PM 35.7511 -78.8425 83° East 298 343 8,000 -800 Level Washington Center
Tue 10:07:08 PM 35.7756 -78.7819 64° Northeast 302 348 7,200 -1,400 Descending Washington Center
Tue 10:07:20 PM 35.7803 -78.7567 77° East 275 316 6,600 -1,900 Descending Washington Center
Tue 10:08:08 PM 35.8214 -78.7069 44° Northeast 277 319 5,300 -1,789 Descending Washington Center
Tue 10:08:17 PM 35.8300 -78.6944 50° Northeast 275 316 4,900 -1,574 Descending Washington Center
Tue 10:09:09 PM 35.8792 -78.6528 34° Northeast 264 304 3,700 -1,574 Descending Washington Center
Tue 10:09:18 PM 35.8917 -78.6533 358° North 249 287 3,300 -1,241 Descending Washington Center
Tue 10:10:36 PM 35.9189 -78.7236 296° West 138 159 1,900 -952 Descending Washington Center
Tue 10:11:43 PM 35.8953 -78.7561 228° Southwest 105 121 1,000 -806 Descending Washington Center
Tue 10:13:00 PM 35.8667 -78.7833 North  Level FlightAware Approximate
Tue 10:20:00 PM 35.8776 -78.7875 North  Level Estimated

Login

Don't have an account? Register now (free) for customized features, flight alerts, and more!